createdAt,value
2017-11-06T20:37:33.470Z,1013.78
2017-11-06T20:38:33.476Z,1013.75
2017-11-06T20:39:33.485Z,1013.74
2017-11-06T20:40:33.492Z,1013.76
2017-11-06T20:41:33.505Z,1013.73
2017-11-06T20:42:33.513Z,1013.77
2017-11-06T20:43:33.529Z,1013.74
2017-11-06T20:44:33.533Z,1013.7
2017-11-06T20:45:33.544Z,1013.74
2017-11-06T20:46:33.555Z,1013.72
2017-11-06T20:47:33.575Z,1013.7
2017-11-06T20:48:33.578Z,1013.73
2017-11-06T20:49:33.590Z,1013.72
2017-11-06T20:50:33.601Z,1013.7
2017-11-06T20:51:33.616Z,1013.71
2017-11-06T20:52:33.627Z,1013.74
2017-11-06T20:53:33.639Z,1013.81
2017-11-06T20:54:33.651Z,1013.8
2017-11-06T20:55:33.664Z,1013.81
2017-11-06T20:56:33.678Z,1013.87
2017-11-06T20:57:33.892Z,1013.88
2017-11-06T20:58:33.713Z,1013.86
2017-11-06T20:59:33.716Z,1013.9
2017-11-06T21:00:33.731Z,1013.84
2017-11-06T21:01:33.742Z,1013.88
2017-11-06T21:02:33.756Z,1013.91
2017-11-06T21:03:33.770Z,1013.89
2017-11-06T21:04:33.783Z,1013.92
2017-11-06T21:05:33.796Z,1013.93
2017-11-06T21:06:33.810Z,1013.94
2017-11-06T21:07:33.824Z,1013.97
2017-11-06T21:08:33.839Z,1013.95
2017-11-06T21:09:33.855Z,1013.96
2017-11-06T21:10:33.865Z,1013.92
2017-11-06T21:11:33.879Z,1013.91
2017-11-06T21:12:33.893Z,1013.93
2017-11-06T21:13:33.907Z,1013.95
2017-11-06T21:14:33.924Z,1013.93
2017-11-06T21:15:33.958Z,1013.96
2017-11-06T21:16:33.950Z,1013.95
2017-11-06T21:17:33.966Z,1013.91
2017-11-06T21:18:33.978Z,1013.9
2017-11-06T21:19:33.997Z,1013.9
2017-11-06T21:20:34.009Z,1013.89
2017-11-06T21:21:34.021Z,1013.91
2017-11-06T21:22:34.038Z,1013.9
2017-11-06T21:23:34.050Z,1013.92
2017-11-06T21:24:34.065Z,1013.92
2017-11-06T21:25:34.092Z,1013.97
2017-11-06T21:26:34.096Z,1013.91
2017-11-06T21:27:34.108Z,1013.94
2017-11-06T21:28:34.123Z,1013.95
2017-11-06T21:29:34.141Z,1013.98
2017-11-06T21:30:34.183Z,1014
2017-11-06T21:31:34.167Z,1013.98
2017-11-06T21:32:34.182Z,1014.01
2017-11-06T21:33:34.199Z,1014.02
2017-11-06T21:34:34.211Z,1014.02
2017-11-06T21:35:34.227Z,1014.02
2017-11-06T21:36:34.242Z,1013.99
2017-11-06T21:37:34.257Z,1014.04
2017-11-06T21:38:34.271Z,1014.02
2017-11-06T21:39:34.286Z,1014.01
2017-11-06T21:40:34.302Z,1014.04
2017-11-06T21:41:34.315Z,1014.01
2017-11-06T21:42:34.330Z,1014.05
2017-11-06T21:43:34.345Z,1014.01
2017-11-06T21:44:34.361Z,1014.04
2017-11-06T21:45:34.411Z,1014.02
2017-11-06T21:46:34.390Z,1014.05
2017-11-06T21:47:34.461Z,1014
2017-11-06T21:48:34.421Z,1014.03
2017-11-06T21:49:34.435Z,1013.97
2017-11-06T21:50:34.450Z,1014.01
2017-11-06T21:51:34.468Z,1013.98
2017-11-06T21:52:34.479Z,1013.99
2017-11-06T21:53:34.495Z,1014.04
2017-11-06T21:54:34.515Z,1014.02
2017-11-06T21:55:34.526Z,1014.05
2017-11-06T21:56:34.540Z,1014.04
2017-11-06T21:57:34.556Z,1014.03
2017-11-06T21:58:34.572Z,1014.02
2017-11-06T21:59:34.586Z,1014.05
2017-11-06T22:00:34.600Z,1014.04
2017-11-06T22:01:34.616Z,1014.01
2017-11-06T22:02:34.631Z,1014.03
2017-11-06T22:03:34.646Z,1014.03
2017-11-06T22:04:34.662Z,1014.07
2017-11-06T22:05:34.677Z,1014.1
2017-11-06T22:06:34.692Z,1014.1
2017-11-06T22:07:34.706Z,1014.12
2017-11-06T22:08:34.722Z,1014.08
2017-11-06T22:09:34.738Z,1014.1
2017-11-06T22:10:34.753Z,1014.14
2017-11-06T22:11:34.780Z,1014.15
2017-11-06T22:12:34.783Z,1014.14
2017-11-06T22:13:34.799Z,1014.1
2017-11-06T22:14:34.813Z,1014.06
2017-11-06T22:15:34.831Z,1014.12
2017-11-06T22:16:34.846Z,1014.12
2017-11-06T22:17:34.860Z,1014.17
2017-11-06T22:18:34.875Z,1014.16
2017-11-06T22:19:34.890Z,1014.18
2017-11-06T22:20:34.905Z,1014.22
2017-11-06T22:21:34.919Z,1014.23
2017-11-06T22:22:34.934Z,1014.22
2017-11-06T22:23:34.951Z,1014.23
2017-11-06T22:24:34.965Z,1014.24
2017-11-06T22:25:34.980Z,1014.24
2017-11-06T22:26:34.998Z,1014.21
2017-11-06T22:27:35.012Z,1014.19
2017-11-06T22:28:35.026Z,1014.17
2017-11-06T22:29:35.042Z,1014.17
2017-11-06T22:30:35.056Z,1014.17
2017-11-06T22:31:35.072Z,1014.15
2017-11-06T22:32:35.087Z,1014.15
2017-11-06T22:33:35.102Z,1014.15
2017-11-06T22:34:35.116Z,1014.17
2017-11-06T22:35:35.132Z,1014.21
2017-11-06T22:36:35.147Z,1014.21
2017-11-06T22:37:35.163Z,1014.2
2017-11-06T22:38:35.178Z,1014.17
2017-11-06T22:39:35.195Z,1014.2
2017-11-06T22:40:35.207Z,1014.17
2017-11-06T22:41:35.224Z,1014.19
2017-11-06T22:42:35.239Z,1014.15
2017-11-06T22:43:35.254Z,1014.2
2017-11-06T22:44:35.269Z,1014.14
2017-11-06T22:45:35.289Z,1014.11
2017-11-06T22:46:35.302Z,1014.1
2017-11-06T22:47:35.314Z,1014.12
2017-11-06T22:48:35.330Z,1014.11
2017-11-06T22:49:35.345Z,1014.15
2017-11-06T22:50:35.361Z,1014.12
2017-11-06T22:51:35.377Z,1014.1
2017-11-06T22:52:35.397Z,1014.13
2017-11-06T22:53:35.411Z,1014.09
2017-11-06T22:54:35.422Z,1014.13
2017-11-06T22:55:35.436Z,1014.13
2017-11-06T22:56:35.451Z,1014.15
2017-11-06T22:57:35.468Z,1014.16
2017-11-06T22:58:35.482Z,1014.12
2017-11-06T22:59:35.497Z,1014.13
2017-11-06T23:00:35.512Z,1014.09
2017-11-06T23:01:35.528Z,1014.08
2017-11-06T23:02:35.543Z,1014.06
2017-11-06T23:03:35.563Z,1014.02
2017-11-06T23:04:35.574Z,1014.04
2017-11-06T23:05:35.588Z,1014.06
2017-11-06T23:06:35.605Z,1014.03
2017-11-06T23:07:35.619Z,1014.04
2017-11-06T23:08:35.637Z,1014
2017-11-06T23:09:35.651Z,1013.99
2017-11-06T23:10:35.665Z,1013.97
2017-11-06T23:11:35.681Z,1013.98
2017-11-06T23:12:35.696Z,1013.95
2017-11-06T23:13:35.711Z,1013.97
2017-11-06T23:14:35.725Z,1013.97
2017-11-06T23:15:35.742Z,1014
2017-11-06T23:16:35.756Z,1014.01
2017-11-06T23:17:35.772Z,1014.01
2017-11-06T23:18:35.787Z,1014
2017-11-06T23:19:35.803Z,1013.97
2017-11-06T23:20:35.817Z,1013.99
2017-11-06T23:21:35.835Z,1013.96
2017-11-06T23:22:35.849Z,1013.99
2017-11-06T23:23:35.864Z,1013.96
2017-11-06T23:24:35.879Z,1013.98
2017-11-06T23:25:35.896Z,1014
2017-11-06T23:26:35.910Z,1014
2017-11-06T23:27:35.924Z,1013.99
2017-11-06T23:28:35.939Z,1013.98
2017-11-06T23:29:35.955Z,1014.01
2017-11-06T23:30:35.972Z,1013.93
2017-11-06T23:31:35.985Z,1014.03
2017-11-06T23:32:36.002Z,1013.99
2017-11-06T23:33:36.016Z,1014
2017-11-06T23:34:36.033Z,1014.07
2017-11-06T23:35:36.047Z,1014.06
2017-11-06T23:36:36.063Z,1014.08
2017-11-06T23:37:36.078Z,1014.08
2017-11-06T23:38:36.093Z,1014.07
2017-11-06T23:39:36.108Z,1014.06
2017-11-06T23:40:36.127Z,1014.05
2017-11-06T23:41:36.140Z,1014.04
2017-11-06T23:42:36.154Z,1014.07
2017-11-06T23:43:36.192Z,1014.09
2017-11-06T23:44:36.185Z,1014.08
2017-11-06T23:45:36.202Z,1014.07
2017-11-06T23:46:36.220Z,1014.05
2017-11-06T23:47:36.237Z,1014.03
2017-11-06T23:48:36.268Z,1014.02
2017-11-06T23:49:36.265Z,1014.04
2017-11-06T23:50:36.278Z,1014.02
2017-11-06T23:51:36.297Z,1014.08
2017-11-06T23:52:36.312Z,1014.04
2017-11-06T23:53:36.324Z,1014.05
2017-11-06T23:54:36.341Z,1014.08
2017-11-06T23:55:36.356Z,1014.09
2017-11-06T23:56:36.372Z,1014.05
2017-11-06T23:57:36.386Z,1014.04
2017-11-06T23:58:36.402Z,1014.03
2017-11-06T23:59:36.417Z,1014.05
